createdAt,value
2023-02-09T00:00:17.685Z,2.03
2023-02-09T00:02:44.359Z,2.77
2023-02-09T00:05:11.604Z,2.33
2023-02-09T00:07:38.347Z,3.33
2023-02-09T00:10:06.330Z,2.10
2023-02-09T00:12:52.503Z,2.57
2023-02-09T00:15:19.129Z,2.00
2023-02-09T00:17:45.774Z,3.47
2023-02-09T00:20:12.557Z,1.87
2023-02-09T00:22:39.165Z,2.33
2023-02-09T00:25:06.084Z,2.20
2023-02-09T00:27:35.776Z,1.63
2023-02-09T00:30:02.754Z,2.17
2023-02-09T00:32:32.815Z,1.60
2023-02-09T00:34:59.328Z,1.90
2023-02-09T00:37:26.031Z,2.67
2023-02-09T00:39:52.628Z,2.47
2023-02-09T00:42:19.285Z,1.90
2023-02-09T00:44:46.318Z,1.97
2023-02-09T00:47:13.028Z,1.77
2023-02-09T00:49:40.354Z,1.70
2023-02-09T00:52:08.930Z,1.63
2023-02-09T00:54:36.486Z,1.87
2023-02-09T00:57:05.930Z,1.77
2023-02-09T00:59:34.813Z,2.50
2023-02-09T01:02:01.950Z,2.50
2023-02-09T01:04:28.614Z,2.20
2023-02-09T01:06:55.342Z,1.60
2023-02-09T01:09:22.125Z,2.37
2023-02-09T01:11:48.799Z,3.17
2023-02-09T01:14:15.327Z,1.53
2023-02-09T01:16:42.136Z,2.53
2023-02-09T01:19:12.196Z,2.57
2023-02-09T01:21:39.119Z,1.30
2023-02-09T01:24:06.112Z,2.33
2023-02-09T01:26:32.733Z,2.53
2023-02-09T01:28:59.272Z,1.70
2023-02-09T01:31:31.816Z,1.57
2023-02-09T01:34:01.181Z,1.70
2023-02-09T01:36:28.910Z,1.40
2023-02-09T01:38:57.093Z,1.93
2023-02-09T01:41:24.355Z,1.67
2023-02-09T01:44:28.472Z,1.60
2023-02-09T01:46:55.234Z,1.90
2023-02-09T01:49:26.315Z,1.73
2023-02-09T01:52:00.852Z,2.43
2023-02-09T01:54:33.061Z,1.27
2023-02-09T01:57:05.110Z,2.37
2023-02-09T01:59:34.709Z,1.77
2023-02-09T02:02:01.432Z,1.40
2023-02-09T02:04:29.107Z,2.17
2023-02-09T02:07:02.265Z,2.37
2023-02-09T02:09:29.778Z,1.83
2023-02-09T02:11:56.808Z,1.50
2023-02-09T02:14:38.235Z,1.60
2023-02-09T02:17:23.676Z,2.17
2023-02-09T02:20:27.170Z,0.60
2023-02-09T02:23:21.084Z,0.80
2023-02-09T02:26:12.134Z,0.73
2023-02-09T02:28:42.701Z,1.37
2023-02-09T02:31:31.236Z,2.07
2023-02-09T02:34:12.875Z,1.73
2023-02-09T02:37:01.460Z,1.97
2023-02-09T02:39:46.226Z,1.60
2023-02-09T02:42:50.183Z,1.33
2023-02-09T02:45:35.772Z,1.77
2023-02-09T02:48:08.433Z,1.37
2023-02-09T02:50:40.254Z,1.17
2023-02-09T02:53:10.741Z,1.60
2023-02-09T02:55:39.265Z,2.00
2023-02-09T02:58:09.401Z,1.13
2023-02-09T03:00:45.249Z,1.90
2023-02-09T03:03:19.918Z,1.40
2023-02-09T03:05:48.228Z,1.07
2023-02-09T03:08:14.879Z,1.87
2023-02-09T03:10:42.610Z,0.90
2023-02-09T03:13:21.504Z,1.50
2023-02-09T03:16:20.718Z,1.57
2023-02-09T03:19:10.514Z,0.57
2023-02-09T03:21:49.411Z,1.50
2023-02-09T03:24:44.888Z,0.67
2023-02-09T03:27:47.615Z,2.30
2023-02-09T03:30:17.507Z,0.73
2023-02-09T03:32:46.914Z,1.43
2023-02-09T03:35:18.033Z,1.47
2023-02-09T03:37:44.621Z,0.50
2023-02-09T03:40:11.629Z,1.27
2023-02-09T03:42:38.294Z,1.67
2023-02-09T03:45:08.174Z,0.60
2023-02-09T03:47:35.054Z,0.83
2023-02-09T03:50:01.538Z,1.43
2023-02-09T03:52:27.987Z,0.73
2023-02-09T03:54:54.561Z,1.70
2023-02-09T03:57:21.204Z,1.50
2023-02-09T03:59:47.974Z,1.13
2023-02-09T04:02:14.778Z,0.63
2023-02-09T04:04:41.532Z,0.73
2023-02-09T04:07:08.244Z,0.63
2023-02-09T04:09:35.050Z,1.37
2023-02-09T04:12:01.638Z,1.07
2023-02-09T04:14:28.265Z,1.20
2023-02-09T04:16:55.065Z,0.83
2023-02-09T04:19:21.738Z,1.90
2023-02-09T04:21:48.441Z,1.50
2023-02-09T04:24:15.131Z,1.47
2023-02-09T04:26:41.826Z,0.80
2023-02-09T04:29:08.413Z,1.53
2023-02-09T04:31:35.283Z,1.23
2023-02-09T04:34:02.230Z,1.40
2023-02-09T04:36:29.039Z,1.93
2023-02-09T04:38:55.688Z,1.40
2023-02-09T04:41:22.394Z,1.43
2023-02-09T04:43:49.306Z,2.27
2023-02-09T04:46:18.083Z,0.97
2023-02-09T04:48:45.705Z,1.13
2023-02-09T04:51:12.323Z,1.60
2023-02-09T04:53:38.931Z,0.40
2023-02-09T04:56:06.048Z,0.93
2023-02-09T04:58:51.347Z,1.17
2023-02-09T05:01:27.253Z,1.27
2023-02-09T05:03:53.984Z,1.07
2023-02-09T05:06:21.286Z,1.87
2023-02-09T05:08:48.940Z,1.17
2023-02-09T05:11:15.624Z,2.03
2023-02-09T05:13:42.656Z,1.17
2023-02-09T05:16:13.712Z,1.40
2023-02-09T05:18:40.336Z,1.27
2023-02-09T05:21:07.054Z,1.73
2023-02-09T05:23:33.697Z,1.23
2023-02-09T05:26:00.882Z,1.40
2023-02-09T05:28:27.689Z,1.80
2023-02-09T05:30:54.352Z,1.07
2023-02-09T05:33:22.476Z,0.93
2023-02-09T05:35:50.511Z,0.63
2023-02-09T05:38:17.283Z,0.97
2023-02-09T05:40:45.247Z,1.27
2023-02-09T05:43:12.061Z,0.50
2023-02-09T05:45:38.992Z,0.80
2023-02-09T05:48:05.797Z,1.70
2023-02-09T05:50:32.469Z,0.90
2023-02-09T05:53:00.272Z,1.30
2023-02-09T05:55:26.826Z,0.63
2023-02-09T05:57:53.336Z,0.87
2023-02-09T06:00:20.876Z,2.20
2023-02-09T06:02:47.660Z,1.40
2023-02-09T06:05:14.447Z,1.10
2023-02-09T06:07:41.052Z,1.87
2023-02-09T06:10:08.183Z,1.03
2023-02-09T06:12:34.781Z,1.50
2023-02-09T06:15:01.461Z,0.77
2023-02-09T06:17:28.234Z,1.23
2023-02-09T06:19:54.814Z,1.57
2023-02-09T06:22:21.509Z,1.60
2023-02-09T06:24:48.246Z,0.97
2023-02-09T06:27:14.919Z,1.03
2023-02-09T06:29:41.742Z,1.30
2023-02-09T06:32:08.568Z,0.83
2023-02-09T06:34:35.318Z,1.07
2023-02-09T06:37:01.898Z,3.00
2023-02-09T06:39:29.686Z,1.43
2023-02-09T06:41:56.306Z,0.83
2023-02-09T06:44:22.911Z,0.80
2023-02-09T06:46:49.771Z,0.40
2023-02-09T06:49:16.591Z,2.00
2023-02-09T06:51:43.281Z,1.03
2023-02-09T06:54:09.845Z,0.60
2023-02-09T06:56:36.518Z,0.90
2023-02-09T06:59:03.482Z,0.77
2023-02-09T07:01:30.119Z,1.23
2023-02-09T07:03:56.774Z,0.83
2023-02-09T07:06:23.936Z,1.23
2023-02-09T07:08:50.931Z,1.80
2023-02-09T07:11:19.115Z,1.07
2023-02-09T07:13:46.817Z,1.33
2023-02-09T07:16:14.448Z,0.60
2023-02-09T07:18:41.656Z,0.70
2023-02-09T07:21:11.802Z,1.27
2023-02-09T07:23:39.450Z,1.57
2023-02-09T07:26:09.066Z,1.70
2023-02-09T07:28:36.495Z,1.53
2023-02-09T07:31:05.796Z,0.70
2023-02-09T07:33:32.597Z,0.83
2023-02-09T07:35:59.529Z,1.20
2023-02-09T07:38:26.664Z,0.80
2023-02-09T07:40:53.566Z,2.07
2023-02-09T07:43:20.334Z,0.90
2023-02-09T07:45:47.293Z,1.20
2023-02-09T07:48:16.976Z,1.07
2023-02-09T07:50:50.694Z,1.30
2023-02-09T07:53:17.413Z,1.37
2023-02-09T07:55:44.214Z,1.17
2023-02-09T07:58:11.082Z,1.57
2023-02-09T08:00:37.936Z,0.83
2023-02-09T08:03:05.762Z,1.80
2023-02-09T08:05:41.721Z,1.43
2023-02-09T08:08:08.434Z,1.10
2023-02-09T08:10:35.328Z,1.37
2023-02-09T08:13:04.627Z,0.90
2023-02-09T08:15:37.857Z,1.73
2023-02-09T08:18:12.471Z,1.53
2023-02-09T08:20:40.051Z,2.37
2023-02-09T08:23:11.003Z,0.93
2023-02-09T08:25:38.065Z,1.00
2023-02-09T08:28:05.779Z,1.23
2023-02-09T08:30:33.888Z,2.37
2023-02-09T08:33:01.054Z,1.50
2023-02-09T08:35:30.269Z,2.40
2023-02-09T08:38:00.775Z,1.60
2023-02-09T08:40:27.432Z,1.43
2023-02-09T08:42:54.400Z,1.77
2023-02-09T08:45:21.204Z,1.47
2023-02-09T08:47:47.820Z,1.10
2023-02-09T08:50:14.617Z,1.20
2023-02-09T08:52:41.500Z,1.83
2023-02-09T08:55:08.646Z,1.80
2023-02-09T08:57:43.947Z,2.83
2023-02-09T09:00:12.188Z,2.43
2023-02-09T09:02:38.989Z,1.87
2023-02-09T09:05:05.965Z,2.00
2023-02-09T09:07:33.031Z,2.00
2023-02-09T09:09:59.616Z,2.80
2023-02-09T09:12:26.144Z,2.30
2023-02-09T09:14:52.825Z,1.37
2023-02-09T09:17:19.664Z,2.37
2023-02-09T09:19:46.703Z,1.63
2023-02-09T09:22:13.364Z,2.03
2023-02-09T09:24:43.134Z,2.37
2023-02-09T09:27:10.921Z,1.50
2023-02-09T09:29:40.173Z,2.70
2023-02-09T09:32:08.243Z,1.90
2023-02-09T09:34:34.955Z,2.53
2023-02-09T09:37:01.554Z,1.97
2023-02-09T09:39:28.352Z,2.27
2023-02-09T09:42:00.790Z,2.10
2023-02-09T09:44:42.177Z,2.07
2023-02-09T09:47:16.004Z,1.97
2023-02-09T09:49:43.264Z,2.47
2023-02-09T09:52:28.914Z,2.13
2023-02-09T09:54:55.649Z,2.23
2023-02-09T09:57:26.666Z,2.07
2023-02-09T09:59:54.802Z,2.00
2023-02-09T10:02:27.354Z,2.27
2023-02-09T10:04:59.499Z,2.80
2023-02-09T10:07:31.797Z,1.67
2023-02-09T10:10:07.885Z,2.30
2023-02-09T10:12:51.205Z,1.67
2023-02-09T10:15:28.473Z,2.07
2023-02-09T10:17:57.022Z,2.60
2023-02-09T10:20:46.598Z,2.07
2023-02-09T10:23:21.158Z,1.63
2023-02-09T10:26:07.231Z,2.17
2023-02-09T10:28:46.296Z,1.87
2023-02-09T10:31:31.917Z,1.70
2023-02-09T10:34:04.552Z,1.53
2023-02-09T10:36:35.668Z,1.87
2023-02-09T10:39:11.082Z,1.83
2023-02-09T10:41:40.638Z,1.20
2023-02-09T10:44:21.872Z,2.03
2023-02-09T10:46:48.868Z,2.30
2023-02-09T10:49:36.123Z,2.53
2023-02-09T10:52:14.205Z,1.90
2023-02-09T10:54:49.734Z,2.03
2023-02-09T10:57:26.090Z,1.93
2023-02-09T10:59:55.435Z,2.43
2023-02-09T11:02:36.306Z,2.00
2023-02-09T11:05:23.545Z,2.17
2023-02-09T11:07:57.850Z,2.00
2023-02-09T11:10:27.364Z,2.53
2023-02-09T11:12:54.022Z,1.77
2023-02-09T11:15:26.888Z,2.43
2023-02-09T11:18:06.713Z,1.90
2023-02-09T11:20:44.376Z,2.30
2023-02-09T11:23:33.323Z,1.97
2023-02-09T11:26:24.064Z,1.90
2023-02-09T11:29:08.878Z,2.57
2023-02-09T11:31:50.141Z,2.27
2023-02-09T11:34:42.473Z,2.40
2023-02-09T11:37:24.304Z,1.97
2023-02-09T11:40:06.240Z,3.03
2023-02-09T11:42:47.134Z,1.97
2023-02-09T11:45:24.554Z,1.80
2023-02-09T11:48:04.366Z,1.57
2023-02-09T11:50:42.220Z,1.60
2023-02-09T11:53:47.470Z,1.67
2023-02-09T11:56:22.688Z,1.93
2023-02-09T11:59:05.098Z,1.97
2023-02-09T12:01:56.616Z,1.73
2023-02-09T12:04:47.993Z,1.70
2023-02-09T12:07:23.807Z,1.63
2023-02-09T12:10:01.013Z,2.57
2023-02-09T12:12:34.461Z,1.93
2023-02-09T12:15:25.961Z,2.27
2023-02-09T12:18:03.972Z,2.53
2023-02-09T12:20:36.814Z,1.73
2023-02-09T12:23:32.169Z,2.33
2023-02-09T12:26:17.104Z,2.73
2023-02-09T12:28:46.923Z,1.80
2023-02-09T12:31:26.084Z,1.77
2023-02-09T12:33:58.867Z,2.70
2023-02-09T12:36:30.156Z,2.77
2023-02-09T12:39:05.249Z,3.47
2023-02-09T12:41:32.201Z,3.07
2023-02-09T12:44:21.953Z,1.70
2023-02-09T12:46:55.700Z,2.60
2023-02-09T12:49:28.197Z,2.27
2023-02-09T12:52:12.707Z,2.17
2023-02-09T12:54:51.274Z,3.83
2023-02-09T12:57:20.582Z,2.40
2023-02-09T12:59:50.080Z,2.70
2023-02-09T13:02:46.461Z,2.80
2023-02-09T13:05:22.818Z,2.50
2023-02-09T13:08:15.864Z,3.07
2023-02-09T13:11:18.012Z,2.87
2023-02-09T13:13:55.023Z,2.30
2023-02-09T13:16:24.440Z,1.97
2023-02-09T13:19:04.309Z,2.37
2023-02-09T13:21:52.696Z,2.80
2023-02-09T13:24:23.962Z,2.60
2023-02-09T13:26:54.912Z,1.80
2023-02-09T13:29:23.178Z,1.90
2023-02-09T13:32:08.571Z,2.20
2023-02-09T13:34:51.674Z,2.43
2023-02-09T13:37:27.723Z,2.07
2023-02-09T13:39:57.890Z,2.30
2023-02-09T13:42:26.801Z,2.23
2023-02-09T13:44:55.956Z,1.90
2023-02-09T13:47:23.462Z,1.93
2023-02-09T13:50:03.963Z,2.03
2023-02-09T13:52:38.606Z,2.83
2023-02-09T13:55:17.415Z,2.60
2023-02-09T13:57:49.957Z,3.00
2023-02-09T14:00:22.824Z,2.20
2023-02-09T14:02:53.969Z,3.87
2023-02-09T14:05:42.419Z,3.87
2023-02-09T14:08:12.638Z,3.37
2023-02-09T14:10:43.273Z,4.13
2023-02-09T14:13:28.189Z,4.73
2023-02-09T14:16:08.378Z,4.00
2023-02-09T14:18:46.009Z,4.53
2023-02-09T14:21:15.194Z,3.40
2023-02-09T14:23:45.569Z,4.67
2023-02-09T14:26:15.402Z,3.70
2023-02-09T14:28:45.555Z,3.97
2023-02-09T14:31:22.633Z,4.13
2023-02-09T14:33:51.084Z,3.63
2023-02-09T14:36:22.296Z,3.87
2023-02-09T14:38:50.686Z,3.10
2023-02-09T14:41:19.279Z,4.03
2023-02-09T14:43:58.394Z,3.43
2023-02-09T14:46:25.063Z,4.23
2023-02-09T14:48:56.080Z,3.13
2023-02-09T14:51:23.152Z,4.23
2023-02-09T14:53:50.291Z,3.20
2023-02-09T14:56:30.211Z,3.87
2023-02-09T14:58:56.969Z,4.20
2023-02-09T15:01:23.707Z,4.20
2023-02-09T15:03:50.389Z,3.47
2023-02-09T15:06:17.102Z,4.23
2023-02-09T15:08:43.847Z,2.90
2023-02-09T15:11:42.721Z,2.87
2023-02-09T15:14:11.417Z,3.43
2023-02-09T15:16:38.142Z,4.03
2023-02-09T15:19:12.481Z,2.90
2023-02-09T15:21:39.111Z,3.57
2023-02-09T15:24:05.963Z,4.50
2023-02-09T15:26:35.887Z,3.27
2023-02-09T15:29:08.180Z,3.20
2023-02-09T15:31:34.780Z,3.83
2023-02-09T15:34:01.633Z,2.77
2023-02-09T15:36:28.551Z,3.47
2023-02-09T15:38:55.828Z,3.93
2023-02-09T15:41:41.035Z,3.43
2023-02-09T15:44:44.406Z,3.57
2023-02-09T15:47:29.488Z,3.67
2023-02-09T15:49:56.237Z,3.20
2023-02-09T15:52:23.248Z,3.43
2023-02-09T15:54:52.268Z,3.40
2023-02-09T15:57:19.027Z,4.10
2023-02-09T15:59:46.597Z,4.40
2023-02-09T16:02:14.674Z,4.40
2023-02-09T16:04:41.377Z,4.77
2023-02-09T16:07:13.115Z,4.43
2023-02-09T16:09:42.967Z,4.50
2023-02-09T16:12:12.968Z,3.40
2023-02-09T16:14:40.113Z,3.27
2023-02-09T16:17:07.970Z,2.47
2023-02-09T16:19:34.949Z,3.07
2023-02-09T16:22:04.664Z,2.57
2023-02-09T16:24:37.359Z,5.27
2023-02-09T16:27:14.884Z,3.67
2023-02-09T16:29:41.856Z,4.03
2023-02-09T16:32:20.280Z,2.97
2023-02-09T16:34:46.912Z,2.17
2023-02-09T16:37:32.059Z,2.70
2023-02-09T16:39:58.849Z,3.00
2023-02-09T16:42:25.841Z,2.67
2023-02-09T16:44:53.215Z,2.67
2023-02-09T16:47:23.628Z,2.97
2023-02-09T16:50:02.888Z,2.43
2023-02-09T16:52:30.615Z,2.20
2023-02-09T16:55:01.016Z,3.20
2023-02-09T16:57:29.022Z,2.53
2023-02-09T16:59:56.098Z,2.83
2023-02-09T17:02:33.637Z,2.47
2023-02-09T17:05:02.813Z,2.63
2023-02-09T17:07:37.505Z,2.80
2023-02-09T17:10:17.848Z,2.73
2023-02-09T17:12:44.924Z,2.27
2023-02-09T17:15:29.033Z,2.87
2023-02-09T17:18:01.948Z,2.73
2023-02-09T17:20:42.393Z,3.20
2023-02-09T17:23:17.850Z,2.20
2023-02-09T17:25:45.305Z,1.33
2023-02-09T17:28:12.776Z,2.77
2023-02-09T17:30:40.539Z,2.97
2023-02-09T17:33:10.751Z,3.07
2023-02-09T17:38:30.408Z,2.63
2023-02-09T17:41:00.204Z,2.87
2023-02-09T17:43:33.277Z,2.37
2023-02-09T17:45:59.829Z,2.20
2023-02-09T17:48:26.318Z,2.50
2023-02-09T17:50:58.326Z,2.93
2023-02-09T17:53:27.094Z,4.03
2023-02-09T17:55:56.362Z,3.23
2023-02-09T17:58:24.142Z,2.13
2023-02-09T18:00:55.982Z,3.40
2023-02-09T18:03:24.805Z,2.20
2023-02-09T18:05:58.621Z,3.30
2023-02-09T18:08:27.523Z,3.13
2023-02-09T18:10:57.865Z,2.60
2023-02-09T18:13:25.865Z,2.40
2023-02-09T18:15:52.427Z,3.33
2023-02-09T18:18:18.981Z,2.93
2023-02-09T18:20:45.530Z,2.00
2023-02-09T18:23:15.899Z,2.17
2023-02-09T18:25:42.703Z,3.17
2023-02-09T18:28:09.377Z,2.83
2023-02-09T18:30:38.504Z,2.93
2023-02-09T18:33:06.442Z,3.97
2023-02-09T18:35:38.775Z,3.03
2023-02-09T18:38:09.268Z,4.30
2023-02-09T18:40:36.934Z,3.20
2023-02-09T18:43:06.164Z,3.67
2023-02-09T18:45:33.561Z,3.07
2023-02-09T18:48:00.878Z,2.17
2023-02-09T18:50:30.928Z,2.90
2023-02-09T18:53:00.785Z,3.87
2023-02-09T18:55:30.770Z,2.00
2023-02-09T18:57:59.916Z,2.73
2023-02-09T19:00:27.055Z,3.30
2023-02-09T19:02:57.893Z,3.53
2023-02-09T19:05:27.091Z,3.90
2023-02-09T19:07:55.421Z,3.30
2023-02-09T19:10:22.924Z,3.73
2023-02-09T19:12:49.472Z,4.00
2023-02-09T19:15:21.001Z,3.23
2023-02-09T19:17:47.557Z,3.67
2023-02-09T19:20:20.959Z,3.00
2023-02-09T19:22:51.316Z,1.90
2023-02-09T19:25:26.186Z,2.90
2023-02-09T19:27:53.653Z,1.63
2023-02-09T19:30:26.478Z,2.57
2023-02-09T19:33:04.848Z,2.13
2023-02-09T19:35:31.931Z,2.77
2023-02-09T19:37:58.448Z,2.63
2023-02-09T19:40:35.909Z,2.00
2023-02-09T19:43:04.646Z,2.57
2023-02-09T19:45:36.274Z,3.07
2023-02-09T19:48:04.476Z,2.43
2023-02-09T19:50:31.015Z,2.57
2023-02-09T19:53:03.467Z,2.73
2023-02-09T19:55:29.970Z,2.33
2023-02-09T19:57:56.433Z,3.17
2023-02-09T20:00:22.876Z,2.40
2023-02-09T20:02:49.467Z,2.43
2023-02-09T20:05:16.683Z,3.20
2023-02-09T20:07:48.009Z,3.43
2023-02-09T20:10:14.626Z,2.30
2023-02-09T20:12:41.355Z,3.23
2023-02-09T20:15:07.963Z,3.17
2023-02-09T20:17:34.436Z,2.57
2023-02-09T20:20:00.903Z,3.37
2023-02-09T20:22:34.730Z,2.10
2023-02-09T20:25:01.209Z,3.20
2023-02-09T20:27:30.568Z,2.97
2023-02-09T20:30:01.268Z,2.17
2023-02-09T20:32:36.711Z,2.23
2023-02-09T20:35:04.751Z,2.47
2023-02-09T20:37:31.626Z,3.47
2023-02-09T20:39:58.254Z,3.73
2023-02-09T20:43:03.230Z,2.63
2023-02-09T20:45:48.605Z,1.80
2023-02-09T20:48:15.253Z,2.53
2023-02-09T20:50:41.736Z,3.50
2023-02-09T20:53:08.165Z,3.27
2023-02-09T20:55:34.631Z,3.63
2023-02-09T20:58:01.238Z,3.37
2023-02-09T21:00:27.917Z,3.50
2023-02-09T21:02:54.464Z,2.70
2023-02-09T21:05:20.978Z,3.03
2023-02-09T21:07:52.734Z,2.87
2023-02-09T21:10:21.142Z,3.40
2023-02-09T21:12:47.935Z,2.57
2023-02-09T21:15:14.844Z,4.57
2023-02-09T21:17:47.500Z,2.03
2023-02-09T21:20:19.619Z,3.03
2023-02-09T21:22:46.156Z,2.87
2023-02-09T21:25:13.826Z,4.13
2023-02-09T21:27:40.356Z,3.53
2023-02-09T21:30:07.331Z,3.83
2023-02-09T21:32:39.533Z,3.03
2023-02-09T21:35:10.189Z,3.17
2023-02-09T21:37:42.879Z,2.43
2023-02-09T21:40:11.307Z,3.20
2023-02-09T21:42:42.941Z,2.30
2023-02-09T21:45:10.036Z,3.43
2023-02-09T21:47:38.726Z,3.20
2023-02-09T21:50:08.140Z,2.93
2023-02-09T21:52:35.158Z,3.27
2023-02-09T21:55:01.879Z,3.17
2023-02-09T21:57:28.424Z,3.00
2023-02-09T21:59:55.321Z,3.73
2023-02-09T22:02:21.773Z,3.43
2023-02-09T22:04:50.206Z,3.60
2023-02-09T22:07:16.782Z,3.90
2023-02-09T22:09:43.247Z,3.27
2023-02-09T22:12:09.988Z,3.37
2023-02-09T22:14:38.763Z,2.43
2023-02-09T22:17:05.293Z,3.80
2023-02-09T22:19:31.803Z,3.27
2023-02-09T22:21:58.276Z,2.27
2023-02-09T22:24:25.296Z,3.83
2023-02-09T22:26:52.103Z,2.97
2023-02-09T22:29:18.753Z,3.50
2023-02-09T22:31:45.335Z,2.77
2023-02-09T22:34:12.125Z,3.37
2023-02-09T22:36:39.793Z,4.17
2023-02-09T22:39:07.422Z,3.77
2023-02-09T22:41:34.123Z,3.70
2023-02-09T22:44:03.405Z,3.17
2023-02-09T22:46:38.429Z,4.13
2023-02-09T22:49:08.144Z,3.13
2023-02-09T22:51:39.799Z,3.53
2023-02-09T22:54:06.620Z,3.10
2023-02-09T22:56:33.509Z,3.80
2023-02-09T22:59:08.191Z,3.53
2023-02-09T23:01:34.797Z,2.90
2023-02-09T23:04:01.518Z,2.67
2023-02-09T23:06:30.024Z,3.90
2023-02-09T23:09:00.664Z,3.07
2023-02-09T23:11:30.666Z,3.50
2023-02-09T23:14:10.035Z,3.33
2023-02-09T23:16:41.182Z,3.20
2023-02-09T23:19:11.113Z,2.70
2023-02-09T23:21:39.916Z,3.27
2023-02-09T23:24:07.202Z,3.93
2023-02-09T23:26:34.405Z,2.97
2023-02-09T23:29:03.148Z,2.90
2023-02-09T23:31:29.715Z,3.13
2023-02-09T23:33:56.341Z,4.23
2023-02-09T23:36:28.392Z,3.13
2023-02-09T23:38:57.588Z,4.00
2023-02-09T23:41:25.012Z,2.63
2023-02-09T23:43:52.603Z,3.10
2023-02-09T23:46:21.993Z,3.97
2023-02-09T23:48:49.274Z,3.60
2023-02-09T23:51:24.359Z,4.43
2023-02-09T23:53:50.809Z,5.57
2023-02-09T23:56:18.100Z,3.77
2023-02-09T23:58:47.275Z,3.50
